createdAt,value
2019-05-11T00:02:00.869Z,5.88
2019-05-11T00:04:51.694Z,5.99
2019-05-11T00:07:33.760Z,6.06
2019-05-11T00:10:07.547Z,6.08
2019-05-11T00:12:51.794Z,6.17
2019-05-11T00:15:25.878Z,6.23
2019-05-11T00:18:01.573Z,6.20
2019-05-11T00:20:46.013Z,6.11
2019-05-11T00:23:20.283Z,6.08
2019-05-11T00:25:53.578Z,6.17
2019-05-11T00:28:45.223Z,6.21
2019-05-11T00:31:30.778Z,6.31
2019-05-11T00:34:04.230Z,6.28
2019-05-11T00:36:47.803Z,6.41
2019-05-11T00:39:22.096Z,6.28
2019-05-11T00:42:07.480Z,6.32
2019-05-11T00:44:53.020Z,6.36
2019-05-11T00:47:35.221Z,6.39
2019-05-11T00:50:09.651Z,6.37
2019-05-11T00:52:49.144Z,6.32
2019-05-11T00:55:34.726Z,6.27
2019-05-11T00:58:20.993Z,6.17
2019-05-11T01:00:54.331Z,6.07
2019-05-11T01:03:28.572Z,6.18
2019-05-11T01:06:19.654Z,6.21
2019-05-11T01:08:53.604Z,6.17
2019-05-11T01:11:40.409Z,6.19
2019-05-11T01:14:17.881Z,6.01
2019-05-11T01:17:03.484Z,6.04
2019-05-11T01:19:46.106Z,5.98
2019-05-11T01:22:20.344Z,5.91
2019-05-11T01:24:55.587Z,5.90
2019-05-11T01:27:29.375Z,6.00
2019-05-11T01:30:03.761Z,6.10
2019-05-11T01:33:01.843Z,6.10
2019-05-11T01:35:57.180Z,6.13
2019-05-11T01:38:42.102Z,6.15
2019-05-11T01:41:15.973Z,6.04
2019-05-11T01:43:59.289Z,6.09
2019-05-11T01:46:34.158Z,5.99
2019-05-11T01:49:08.545Z,5.98
2019-05-11T01:51:43.059Z,5.94
2019-05-11T01:54:17.267Z,5.94
2019-05-11T01:56:50.651Z,5.92
2019-05-11T01:59:26.914Z,5.96
2019-05-11T02:02:01.742Z,5.94
2019-05-11T02:04:48.165Z,5.93
2019-05-11T02:07:21.932Z,5.86
2019-05-11T02:09:55.504Z,5.78
2019-05-11T02:12:29.792Z,5.67
2019-05-11T02:15:16.952Z,5.66
2019-05-11T02:18:22.382Z,5.58
2019-05-11T02:20:56.848Z,5.57
2019-05-11T02:23:42.698Z,5.52
2019-05-11T02:26:16.829Z,5.44
2019-05-11T02:29:36.329Z,5.39
2019-05-11T02:32:12.073Z,5.35
2019-05-11T02:34:46.338Z,5.36
2019-05-11T02:38:06.854Z,5.42
2019-05-11T02:40:50.630Z,5.44
2019-05-11T02:43:26.019Z,5.45
2019-05-11T02:46:00.072Z,5.42
2019-05-11T02:48:51.543Z,5.54
2019-05-11T03:02:12.491Z,5.58
2019-05-11T03:04:46.615Z,5.49
2019-05-11T03:07:22.690Z,5.42
2019-05-11T03:09:56.787Z,5.38
2019-05-11T03:12:30.050Z,5.37
2019-05-11T03:15:03.904Z,5.26
2019-05-11T03:18:07.591Z,5.32
2019-05-11T03:20:41.777Z,5.34
2019-05-11T03:23:19.842Z,5.31
2019-05-11T03:25:53.706Z,5.33
2019-05-11T03:28:27.439Z,5.38
2019-05-11T03:31:02.430Z,5.46
2019-05-11T03:33:36.090Z,5.54
2019-05-11T03:36:09.683Z,5.57
2019-05-11T03:38:46.351Z,5.60
2019-05-11T03:41:31.467Z,5.68
2019-05-11T03:44:04.947Z,5.67
2019-05-11T03:46:39.222Z,5.80
2019-05-11T03:49:23.779Z,5.89
2019-05-11T03:51:57.661Z,5.79
2019-05-11T03:54:33.536Z,5.76
2019-05-11T03:57:19.256Z,5.74
2019-05-11T03:59:53.444Z,5.73
2019-05-11T04:02:27.710Z,5.67
2019-05-11T04:05:19.022Z,5.79
2019-05-11T04:07:56.917Z,5.84
2019-05-11T04:10:48.538Z,5.90
2019-05-11T04:13:23.330Z,5.92
2019-05-11T04:15:57.606Z,6.01
2019-05-11T04:18:31.792Z,6.06
2019-05-11T04:21:05.932Z,6.04
2019-05-11T04:23:51.565Z,6.09
2019-05-11T04:26:33.846Z,6.08
2019-05-11T04:29:08.003Z,6.04
2019-05-11T04:31:42.015Z,6.02
2019-05-11T04:34:15.977Z,6.05
2019-05-11T04:36:50.525Z,6.02
2019-05-11T04:39:24.215Z,6.01
2019-05-11T04:41:58.819Z,6.07
2019-05-11T04:44:55.232Z,6.10
2019-05-11T04:47:29.749Z,6.21
2019-05-11T04:50:08.998Z,6.27
2019-05-11T04:52:43.239Z,6.35
2019-05-11T04:55:25.728Z,6.43
2019-05-11T04:57:59.681Z,6.49
2019-05-11T05:00:35.623Z,6.62
2019-05-11T05:03:21.445Z,6.71
2019-05-11T05:06:20.977Z,6.71
2019-05-11T05:29:06.419Z,7.37
2019-05-11T05:31:39.961Z,7.49
2019-05-11T05:34:27.288Z,7.52
2019-05-11T05:37:12.823Z,7.63
2019-05-11T05:39:49.070Z,7.61
2019-05-11T05:42:33.558Z,7.68
2019-05-11T05:45:18.546Z,7.76
2019-05-11T05:48:04.888Z,7.84
2019-05-11T05:50:38.831Z,7.89
2019-05-11T05:53:15.843Z,7.91
2019-05-11T05:55:50.261Z,8.03
2019-05-11T05:58:24.530Z,8.11
2019-05-11T06:00:58.798Z,8.19
2019-05-11T06:03:45.219Z,8.30
2019-05-11T06:20:54.101Z,8.56
2019-05-11T06:23:29.254Z,8.69
2019-05-11T06:26:02.969Z,8.69
2019-05-11T06:28:37.219Z,8.74
2019-05-11T06:31:13.664Z,8.81
2019-05-11T06:34:03.449Z,8.89
2019-05-11T06:36:40.000Z,8.70
2019-05-11T06:39:27.811Z,8.77
2019-05-11T06:42:13.179Z,8.88
2019-05-11T06:44:58.589Z,8.91
2019-05-11T06:47:32.100Z,8.90
2019-05-11T06:50:06.997Z,8.97
2019-05-11T07:03:15.392Z,9.22
2019-05-11T07:16:24.256Z,9.72
2019-05-11T07:19:14.306Z,9.69
2019-05-11T07:21:48.271Z,9.64
2019-05-11T07:24:21.653Z,9.66
2019-05-11T07:27:11.925Z,9.89
2019-05-11T07:29:46.270Z,10.03
2019-05-11T07:32:25.576Z,10.12
2019-05-11T07:34:58.132Z,10.16
2019-05-11T07:48:07.931Z,10.55
2019-05-11T07:50:41.560Z,10.54
2019-05-11T07:53:24.207Z,10.64
2019-05-11T07:55:57.862Z,10.72
2019-05-11T07:58:44.711Z,10.75
2019-05-11T08:01:28.255Z,10.91
2019-05-11T08:04:04.059Z,11.02
2019-05-11T08:06:47.911Z,11.18
2019-05-11T08:09:23.210Z,11.28
2019-05-11T08:11:58.515Z,11.30
2019-05-11T08:14:55.949Z,11.29
2019-05-11T08:17:24.240Z,11.11
2019-05-11T08:19:58.275Z,10.82
2019-05-11T08:22:31.427Z,10.73
2019-05-11T08:25:05.020Z,10.67
2019-05-11T08:27:38.473Z,10.55
2019-05-11T08:30:12.541Z,10.46
2019-05-11T08:32:49.315Z,10.36
2019-05-11T08:35:22.000Z,10.33
2019-05-11T08:37:54.633Z,10.43
2019-05-11T08:40:28.882Z,10.66
2019-05-11T08:43:13.997Z,11.02
2019-05-11T08:45:48.514Z,11.17
2019-05-11T08:48:23.274Z,11.40
2019-05-11T08:51:05.442Z,11.53
2019-05-11T08:53:39.148Z,11.48
2019-05-11T08:56:13.466Z,11.50
2019-05-11T08:58:49.180Z,11.58
2019-05-11T09:01:23.196Z,11.68
2019-05-11T09:03:58.298Z,11.79
2019-05-11T09:06:32.383Z,11.87
2019-05-11T09:09:14.341Z,11.98
2019-05-11T09:11:48.391Z,12.02
2019-05-11T09:14:22.019Z,12.12
2019-05-11T09:17:11.027Z,12.29
2019-05-11T09:19:53.456Z,12.48
2019-05-11T09:22:28.319Z,12.59
2019-05-11T09:25:08.631Z,12.67
2019-05-11T09:27:48.196Z,12.52
2019-05-11T09:30:23.117Z,12.68
2019-05-11T09:33:01.018Z,12.80
2019-05-11T09:35:53.271Z,12.49
2019-05-11T09:38:41.275Z,12.51
2019-05-11T09:41:20.556Z,12.53
2019-05-11T09:43:58.771Z,12.48
2019-05-11T09:46:34.819Z,12.56
2019-05-11T09:49:21.515Z,12.71
2019-05-11T09:51:59.070Z,12.68
2019-05-11T09:54:32.651Z,12.65
2019-05-11T09:57:08.249Z,12.72
2019-05-11T09:59:41.608Z,12.54
2019-05-11T10:02:17.842Z,12.36
2019-05-11T10:04:50.595Z,12.54
2019-05-11T10:07:24.151Z,12.61
2019-05-11T10:09:58.482Z,12.95
2019-05-11T10:12:32.097Z,13.05
2019-05-11T10:15:08.121Z,13.01
2019-05-11T10:17:41.101Z,13.28
2019-05-11T10:20:14.967Z,13.61
2019-05-11T10:22:48.953Z,13.76
2019-05-11T10:25:22.766Z,13.82
2019-05-11T10:27:58.108Z,13.50
2019-05-11T10:30:40.519Z,13.06
2019-05-11T10:33:14.072Z,13.08
2019-05-11T10:35:48.328Z,13.33
2019-05-11T10:38:32.611Z,13.96
2019-05-11T10:41:08.732Z,14.24
2019-05-11T10:43:43.059Z,14.38
2019-05-11T10:46:25.700Z,14.84
2019-05-11T10:49:08.589Z,14.90
2019-05-11T10:51:51.610Z,14.69
2019-05-11T10:54:34.424Z,14.84
2019-05-11T10:57:22.533Z,14.93
2019-05-11T10:59:57.898Z,15.16
2019-05-11T11:02:31.007Z,15.16
2019-05-11T11:05:05.131Z,14.93
2019-05-11T11:07:45.343Z,14.58
2019-05-11T11:10:28.580Z,14.01
2019-05-11T11:13:02.663Z,13.59
2019-05-11T11:15:38.113Z,13.38
2019-05-11T11:18:12.427Z,13.61
2019-05-11T11:20:48.888Z,14.25
2019-05-11T11:23:22.377Z,14.69
2019-05-11T11:25:55.959Z,14.65
2019-05-11T11:28:29.341Z,14.22
2019-05-11T11:31:02.730Z,13.72
2019-05-11T11:33:35.424Z,13.80
2019-05-11T11:36:10.222Z,13.82
2019-05-11T11:38:43.632Z,14.18
2019-05-11T11:41:18.453Z,14.71
2019-05-11T11:43:52.315Z,14.96
2019-05-11T11:46:27.417Z,14.94
2019-05-11T11:49:01.182Z,14.67
2019-05-11T11:51:34.321Z,14.35
2019-05-11T11:54:08.893Z,14.35
2019-05-11T11:56:51.312Z,14.50
2019-05-11T11:59:28.381Z,14.61
2019-05-11T12:02:02.455Z,14.81
2019-05-11T12:04:35.961Z,15.00
2019-05-11T12:07:18.306Z,15.32
2019-05-11T12:09:53.107Z,15.23
2019-05-11T12:12:27.879Z,14.81
2019-05-11T12:15:02.066Z,14.45
2019-05-11T12:17:48.283Z,14.46
2019-05-11T12:20:22.671Z,14.42
2019-05-11T12:22:58.170Z,14.42
2019-05-11T12:25:31.336Z,14.37
2019-05-11T12:28:04.763Z,14.45
2019-05-11T12:30:48.054Z,14.59
2019-05-11T12:33:23.282Z,14.69
2019-05-11T12:35:58.676Z,15.09
2019-05-11T12:38:33.040Z,15.37
2019-05-11T12:41:18.722Z,15.34
2019-05-11T12:43:52.317Z,15.24
2019-05-11T12:46:27.679Z,15.36
2019-05-11T12:49:10.400Z,15.47
2019-05-11T12:51:53.933Z,15.63
2019-05-11T12:54:28.033Z,15.57
2019-05-11T12:57:02.182Z,15.74
2019-05-11T12:59:44.738Z,15.79
2019-05-11T13:02:28.107Z,15.67
2019-05-11T13:05:02.000Z,15.61
2019-05-11T13:07:35.298Z,15.53
2019-05-11T13:10:11.191Z,15.33
2019-05-11T13:12:44.368Z,15.58
2019-05-11T13:15:18.970Z,15.66
2019-05-11T13:18:01.849Z,15.83
2019-05-11T13:20:44.796Z,15.70
2019-05-11T13:23:18.709Z,15.58
2019-05-11T13:25:52.244Z,15.14
2019-05-11T13:28:28.417Z,14.85
2019-05-11T13:31:02.186Z,15.24
2019-05-11T13:33:44.507Z,15.31
2019-05-11T13:36:18.809Z,15.21
2019-05-11T13:38:52.170Z,15.45
2019-05-11T13:41:35.264Z,15.20
2019-05-11T13:44:09.284Z,15.16
2019-05-11T13:49:19.579Z,15.55
2019-05-11T13:51:52.494Z,15.87
2019-05-11T13:54:26.403Z,16.02
2019-05-11T13:57:00.231Z,15.73
2019-05-11T13:59:42.761Z,15.49
2019-05-11T14:02:18.933Z,15.76
2019-05-11T14:04:52.898Z,16.15
2019-05-11T14:07:27.545Z,16.53
2019-05-11T14:10:07.866Z,16.13
2019-05-11T14:12:49.381Z,15.86
2019-05-11T14:15:22.929Z,15.89
2019-05-11T14:18:05.763Z,16.37
2019-05-11T14:20:31.994Z,16.74
2019-05-11T14:23:07.727Z,17.05
2019-05-11T14:25:50.029Z,17.33
2019-05-11T14:28:23.539Z,17.33
2019-05-11T14:30:58.026Z,17.43
2019-05-11T14:33:32.010Z,17.26
2019-05-11T14:36:05.300Z,17.43
2019-05-11T14:38:39.653Z,17.69
2019-05-11T14:41:15.228Z,17.34
2019-05-11T14:44:01.412Z,17.45
2019-05-11T14:46:35.027Z,17.66
2019-05-11T14:49:08.539Z,17.77
2019-05-11T14:51:43.473Z,17.09
2019-05-11T14:54:28.747Z,17.18
2019-05-11T14:57:02.353Z,16.59
2019-05-11T14:59:37.770Z,16.25
2019-05-11T15:02:29.648Z,16.54
2019-05-11T15:05:03.502Z,16.84
2019-05-11T15:07:38.543Z,16.30
2019-05-11T15:10:12.934Z,16.30
2019-05-11T15:12:48.898Z,16.27
2019-05-11T15:15:32.608Z,16.28
2019-05-11T15:18:08.419Z,15.70
2019-05-11T15:20:50.235Z,15.37
2019-05-11T15:23:24.740Z,15.47
2019-05-11T15:25:59.340Z,15.65
2019-05-11T15:28:34.130Z,15.73
2019-05-11T15:31:09.812Z,15.78
2019-05-11T15:33:42.802Z,15.67
2019-05-11T15:36:19.320Z,15.75
2019-05-11T15:38:52.167Z,15.60
2019-05-11T15:41:27.974Z,15.22
2019-05-11T15:44:01.470Z,15.04
2019-05-11T15:46:44.680Z,15.13
2019-05-11T15:49:18.515Z,15.08
2019-05-11T15:51:57.915Z,15.17
2019-05-11T15:54:31.630Z,15.21
2019-05-11T15:57:05.292Z,14.99
2019-05-11T15:59:40.260Z,14.58
2019-05-11T16:02:22.925Z,14.28
2019-05-11T16:05:05.832Z,14.14
2019-05-11T16:07:49.599Z,13.99
2019-05-11T16:10:22.494Z,13.83
2019-05-11T16:12:58.633Z,13.65
2019-05-11T16:15:35.409Z,13.52
2019-05-11T16:18:18.935Z,13.38
2019-05-11T16:21:07.624Z,13.50
2019-05-11T16:23:41.839Z,13.67
2019-05-11T16:26:17.466Z,13.93
2019-05-11T16:28:50.444Z,14.00
2019-05-11T16:31:23.918Z,14.16
2019-05-11T16:33:58.885Z,14.18
2019-05-11T16:36:32.782Z,14.04
2019-05-11T16:39:10.443Z,13.81
2019-05-11T16:41:43.665Z,13.88
2019-05-11T16:44:18.472Z,14.27
2019-05-11T16:46:52.559Z,14.29
2019-05-11T16:49:29.646Z,14.26
2019-05-11T16:52:01.605Z,13.93
2019-05-11T16:54:47.770Z,13.76
2019-05-11T16:57:21.288Z,13.49
2019-05-11T16:59:55.170Z,13.40
2019-05-11T17:02:38.576Z,13.61
2019-05-11T17:05:33.462Z,13.77
2019-05-11T17:07:55.836Z,13.71
2019-05-11T17:10:29.347Z,13.58
2019-05-11T17:13:03.924Z,13.43
2019-05-11T17:15:37.577Z,13.39
2019-05-11T17:18:11.317Z,13.34
2019-05-11T17:20:45.276Z,13.21
2019-05-11T17:23:19.166Z,12.90
2019-05-11T17:25:52.617Z,12.81
2019-05-11T17:28:26.567Z,12.72
2019-05-11T17:31:09.828Z,12.50
2019-05-11T17:33:43.599Z,12.43
2019-05-11T17:36:18.866Z,12.53
2019-05-11T17:38:52.968Z,12.49
2019-05-11T17:41:27.938Z,12.44
2019-05-11T17:44:01.561Z,12.33
2019-05-11T17:46:35.308Z,12.22
2019-05-11T17:49:09.025Z,12.11
2019-05-11T17:51:42.937Z,12.04
2019-05-11T17:54:17.892Z,12.00
2019-05-11T17:56:52.001Z,11.99
2019-05-11T17:59:34.409Z,12.10
2019-05-11T18:02:09.477Z,12.03
2019-05-11T18:04:43.040Z,11.84
2019-05-11T18:07:27.183Z,11.74
2019-05-11T18:10:04.683Z,11.66
2019-05-11T18:12:48.761Z,11.57
2019-05-11T18:15:22.052Z,11.38
2019-05-11T18:17:55.515Z,11.22
2019-05-11T18:20:28.843Z,11.06
2019-05-11T18:23:02.439Z,11.01
2019-05-11T18:25:38.888Z,10.87
2019-05-11T18:28:14.358Z,10.85
2019-05-11T18:30:48.082Z,10.86
2019-05-11T18:33:23.073Z,10.77
2019-05-11T18:36:05.135Z,10.70
2019-05-11T18:38:39.344Z,10.49
2019-05-11T18:41:14.766Z,10.39
2019-05-11T18:43:48.510Z,10.29
2019-05-11T18:46:22.748Z,10.31
2019-05-11T18:48:55.956Z,10.28
2019-05-11T18:51:30.119Z,10.20
2019-05-11T18:54:02.314Z,10.07
2019-05-11T18:56:45.357Z,10.10
2019-05-11T18:59:30.108Z,10.03
2019-05-11T19:02:03.430Z,9.95
2019-05-11T19:04:38.148Z,9.93
2019-05-11T19:07:20.235Z,9.84
2019-05-11T19:09:57.592Z,9.74
2019-05-11T19:12:30.159Z,9.68
2019-05-11T19:15:03.530Z,9.69
2019-05-11T19:17:38.683Z,9.72
2019-05-11T19:20:12.448Z,9.66
2019-05-11T19:22:46.309Z,9.59
2019-05-11T19:25:19.828Z,9.54
2019-05-11T19:27:53.037Z,9.47
2019-05-11T19:30:38.421Z,9.48
2019-05-11T19:33:12.103Z,9.42
2019-05-11T19:35:47.964Z,9.39
2019-05-11T19:38:20.985Z,9.39
2019-05-11T19:40:58.609Z,9.39
2019-05-11T19:43:31.377Z,9.42
2019-05-11T19:46:04.681Z,9.31
2019-05-11T19:48:50.485Z,9.24
2019-05-11T19:51:23.861Z,9.21
2019-05-11T19:53:58.120Z,9.08
2019-05-11T19:56:32.296Z,9.12
2019-05-11T19:59:17.496Z,9.09
2019-05-11T20:02:01.393Z,9.04
2019-05-11T20:04:35.326Z,8.94
2019-05-11T20:07:18.514Z,8.98
2019-05-11T20:10:02.030Z,8.96
2019-05-11T20:12:38.235Z,8.92
2019-05-11T20:15:10.976Z,8.85
2019-05-11T20:17:44.782Z,8.74
2019-05-11T20:20:19.454Z,8.67
2019-05-11T20:22:52.827Z,8.60
2019-05-11T20:25:28.532Z,8.64
2019-05-11T20:28:01.770Z,8.60
2019-05-11T20:30:35.644Z,8.53
2019-05-11T20:33:09.616Z,8.48
2019-05-11T20:35:43.500Z,8.37
2019-05-11T20:38:27.920Z,8.34
2019-05-11T20:41:02.289Z,8.30
2019-05-11T20:43:34.504Z,8.27
2019-05-11T20:46:08.341Z,8.31
2019-05-11T20:48:41.865Z,8.32
2019-05-11T20:51:33.370Z,8.28
2019-05-11T20:54:08.833Z,8.34
2019-05-11T20:56:51.648Z,8.35
2019-05-11T20:59:25.016Z,8.23
2019-05-11T21:01:58.945Z,8.23
2019-05-11T21:04:33.509Z,8.17
2019-05-11T21:07:08.486Z,8.18
2019-05-11T21:09:42.735Z,8.18
2019-05-11T21:12:18.360Z,8.18
2019-05-11T21:14:51.485Z,8.11
2019-05-11T21:17:25.393Z,8.04
2019-05-11T21:20:38.060Z,8.11
2019-05-11T21:23:11.920Z,8.04
2019-05-11T21:25:45.542Z,8.01
2019-05-11T21:28:18.683Z,7.98
2019-05-11T21:31:01.398Z,8.02
2019-05-11T21:33:50.357Z,7.96
2019-05-11T21:36:24.101Z,7.85
2019-05-11T21:38:58.872Z,7.86
2019-05-11T21:44:53.206Z,7.83
2019-05-11T21:47:38.698Z,7.83
2019-05-11T21:50:12.012Z,7.71
2019-05-11T21:52:45.459Z,7.74
2019-05-11T21:55:19.066Z,7.69
2019-05-11T21:57:52.907Z,7.65
2019-05-11T22:00:28.857Z,7.61
2019-05-11T22:03:15.591Z,7.62
2019-05-11T22:05:54.389Z,7.58
2019-05-11T22:08:37.014Z,7.54
2019-05-11T22:11:21.710Z,7.52
2019-05-11T22:14:03.535Z,7.55
2019-05-11T22:16:38.727Z,7.50
2019-05-11T22:19:25.360Z,7.44
2019-05-11T22:21:59.616Z,7.45
2019-05-11T22:24:41.915Z,7.42
2019-05-11T22:27:18.511Z,7.38
2019-05-11T22:29:52.111Z,7.35
2019-05-11T22:32:28.071Z,7.34
2019-05-11T22:35:10.215Z,7.34
2019-05-11T22:37:44.479Z,7.25
2019-05-11T22:40:32.871Z,7.22
2019-05-11T22:43:09.049Z,7.18
2019-05-11T22:45:50.336Z,7.18
2019-05-11T22:48:24.126Z,7.14
2019-05-11T22:51:04.494Z,7.07
2019-05-11T22:53:48.079Z,7.09
2019-05-11T22:56:38.851Z,7.02
2019-05-11T22:59:12.653Z,6.91
2019-05-11T23:01:48.191Z,6.80
2019-05-11T23:04:21.374Z,6.76
2019-05-11T23:06:54.855Z,6.73
2019-05-11T23:09:29.107Z,6.71
2019-05-11T23:12:11.449Z,6.76
2019-05-11T23:14:48.295Z,6.65
2019-05-11T23:17:22.098Z,6.61
2019-05-11T23:20:04.504Z,6.65
2019-05-11T23:22:56.883Z,6.62
2019-05-11T23:25:24.095Z,6.57
2019-05-11T23:27:58.802Z,6.60
2019-05-11T23:30:32.514Z,6.61
2019-05-11T23:33:14.600Z,6.64
2019-05-11T23:35:48.647Z,6.56
2019-05-11T23:38:31.439Z,6.55
2019-05-11T23:41:24.170Z,6.52
2019-05-11T23:43:59.211Z,6.48
2019-05-11T23:46:33.121Z,6.43
2019-05-11T23:49:22.000Z,6.50
2019-05-11T23:52:07.574Z,6.54
2019-05-11T23:54:41.603Z,6.41
2019-05-11T23:57:24.797Z,6.31
2019-05-11T23:59:58.292Z,6.19
